sensor_id;sensor_type;location;lat;lon;timestamp;pressure;altitude;pressure_sealevel;temperature;humidity
51289;BME280;37372;52.294;5.152;2023-11-21T00:02:04;100956.75;;;5.99;100.00
51289;BME280;37372;52.294;5.152;2023-11-21T00:04:29;100952.50;;;5.96;100.00
51289;BME280;37372;52.294;5.152;2023-11-21T00:06:55;100958.78;;;5.97;100.00
51289;BME280;37372;52.294;5.152;2023-11-21T00:09:20;100956.06;;;5.97;100.00
51289;BME280;37372;52.294;5.152;2023-11-21T00:11:45;100952.56;;;6.03;100.00
51289;BME280;37372;52.294;5.152;2023-11-21T00:14:11;100960.53;;;6.05;100.00
51289;BME280;37372;52.294;5.152;2023-11-21T00:16:37;100959.50;;;6.06;100.00
51289;BME280;37372;52.294;5.152;2023-11-21T00:19:03;100959.72;;;6.11;100.00
51289;BME280;37372;52.294;5.152;2023-11-21T00:21:28;100967.72;;;6.12;100.00
51289;BME280;37372;52.294;5.152;2023-11-21T00:23:54;100959.16;;;6.15;100.00
51289;BME280;37372;52.294;5.152;2023-11-21T00:26:19;100960.44;;;6.19;100.00
51289;BME280;37372;52.294;5.152;2023-11-21T00:28:45;100963.22;;;6.26;100.00
51289;BME280;37372;52.294;5.152;2023-11-21T00:31:10;100964.69;;;6.29;100.00
51289;BME280;37372;52.294;5.152;2023-11-21T00:33:36;100962.63;;;6.37;100.00
51289;BME280;37372;52.294;5.152;2023-11-21T00:36:02;100962.25;;;6.40;100.00
51289;BME280;37372;52.294;5.152;2023-11-21T00:38:28;100964.38;;;6.45;100.00
51289;BME280;37372;52.294;5.152;2023-11-21T00:40:53;100974.00;;;6.47;100.00
51289;BME280;37372;52.294;5.152;2023-11-21T00:43:22;100967.50;;;6.48;100.00
51289;BME280;37372;52.294;5.152;2023-11-21T00:45:48;100961.84;;;6.50;100.00
51289;BME280;37372;52.294;5.152;2023-11-21T00:48:14;100965.66;;;6.56;100.00
51289;BME280;37372;52.294;5.152;2023-11-21T00:50:40;100975.72;;;6.55;100.00
51289;BME280;37372;52.294;5.152;2023-11-21T00:53:05;100978.44;;;6.55;100.00
51289;BME280;37372;52.294;5.152;2023-11-21T00:55:33;100974.69;;;6.56;100.00
51289;BME280;37372;52.294;5.152;2023-11-21T00:57:59;100975.53;;;6.57;100.00
51289;BME280;37372;52.294;5.152;2023-11-21T01:00:25;100979.97;;;6.58;100.00
51289;BME280;37372;52.294;5.152;2023-11-21T01:02:50;100984.78;;;6.62;100.00
51289;BME280;37372;52.294;5.152;2023-11-21T01:05:15;100993.78;;;6.63;100.00
51289;BME280;37372;52.294;5.152;2023-11-21T01:07:41;100989.00;;;6.65;100.00
51289;BME280;37372;52.294;5.152;2023-11-21T01:10:07;100987.53;;;6.69;100.00
51289;BME280;37372;52.294;5.152;2023-11-21T01:12:37;100991.34;;;6.74;100.00
51289;BME280;37372;52.294;5.152;2023-11-21T01:15:07;100993.03;;;6.75;100.00
51289;BME280;37372;52.294;5.152;2023-11-21T01:17:33;100993.03;;;6.75;100.00
51289;BME280;37372;52.294;5.152;2023-11-21T01:19:59;100996.19;;;6.79;100.00
51289;BME280;37372;52.294;5.152;2023-11-21T01:22:25;101001.66;;;6.79;100.00
51289;BME280;37372;52.294;5.152;2023-11-21T01:24:52;101004.16;;;6.81;100.00
51289;BME280;37372;52.294;5.152;2023-11-21T01:27:17;101003.78;;;6.84;100.00
51289;BME280;37372;52.294;5.152;2023-11-21T01:29:43;101008.19;;;6.85;100.00
51289;BME280;37372;52.294;5.152;2023-11-21T01:32:10;101007.53;;;6.83;100.00
51289;BME280;37372;52.294;5.152;2023-11-21T01:34:36;101011.97;;;6.84;100.00
51289;BME280;37372;52.294;5.152;2023-11-21T01:37:02;101015.31;;;6.86;100.00
51289;BME280;37372;52.294;5.152;2023-11-21T01:39:30;101025.19;;;6.87;100.00
51289;BME280;37372;52.294;5.152;2023-11-21T01:41:57;101023.09;;;6.89;100.00
51289;BME280;37372;52.294;5.152;2023-11-21T01:44:24;101026.69;;;6.89;100.00
51289;BME280;37372;52.294;5.152;2023-11-21T01:46:50;101032.75;;;6.91;100.00
51289;BME280;37372;52.294;5.152;2023-11-21T01:49:16;101033.38;;;6.93;100.00
51289;BME280;37372;52.294;5.152;2023-11-21T01:51:48;101036.53;;;6.90;100.00
51289;BME280;37372;52.294;5.152;2023-11-21T01:54:18;101037.38;;;6.91;100.00
51289;BME280;37372;52.294;5.152;2023-11-21T01:56:47;101036.34;;;6.92;100.00
51289;BME280;37372;52.294;5.152;2023-11-21T01:59:20;101045.13;;;6.94;100.00
51289;BME280;37372;52.294;5.152;2023-11-21T02:01:48;101047.88;;;6.94;100.00
51289;BME280;37372;52.294;5.152;2023-11-21T02:04:15;101043.91;;;6.96;100.00
51289;BME280;37372;52.294;5.152;2023-11-21T02:06:41;101048.09;;;6.99;100.00
51289;BME280;37372;52.294;5.152;2023-11-21T02:09:07;101044.75;;;6.97;100.00
51289;BME280;37372;52.294;5.152;2023-11-21T02:11:34;101054.41;;;6.99;100.00
51289;BME280;37372;52.294;5.152;2023-11-21T02:14:00;101056.09;;;7.00;100.00
51289;BME280;37372;52.294;5.152;2023-11-21T02:16:26;101059.25;;;7.04;100.00
51289;BME280;37372;52.294;5.152;2023-11-21T02:18:52;101058.22;;;7.05;100.00
51289;BME280;37372;52.294;5.152;2023-11-21T02:21:18;101056.31;;;7.05;100.00
51289;BME280;37372;52.294;5.152;2023-11-21T02:23:44;101063.66;;;7.05;100.00
51289;BME280;37372;52.294;5.152;2023-11-21T02:26:11;101060.31;;;7.03;100.00
51289;BME280;37372;52.294;5.152;2023-11-21T02:28:37;101062.00;;;7.04;100.00
51289;BME280;37372;52.294;5.152;2023-11-21T02:31:04;101069.53;;;7.02;100.00
51289;BME280;37372;52.294;5.152;2023-11-21T02:33:30;101062.59;;;6.99;100.00
51289;BME280;37372;52.294;5.152;2023-11-21T02:35:59;101066.56;;;6.97;100.00
51289;BME280;37372;52.294;5.152;2023-11-21T02:38:25;101065.53;;;6.98;100.00
51289;BME280;37372;52.294;5.152;2023-11-21T02:40:50;101067.63;;;6.96;100.00
51289;BME280;37372;52.294;5.152;2023-11-21T02:43:15;101064.22;;;6.94;100.00
51289;BME280;37372;52.294;5.152;2023-11-21T02:45:42;101065.50;;;6.91;100.00
51289;BME280;37372;52.294;5.152;2023-11-21T02:48:07;101058.94;;;6.86;100.00
51289;BME280;37372;52.294;5.152;2023-11-21T02:50:32;101067.97;;;6.86;100.00
51289;BME280;37372;52.294;5.152;2023-11-21T02:53:01;101058.94;;;6.86;100.00
51289;BME280;37372;52.294;5.152;2023-11-21T02:55:27;101064.41;;;6.86;100.00
51289;BME280;37372;52.294;5.152;2023-11-21T02:57:53;101062.31;;;6.88;100.00
51289;BME280;37372;52.294;5.152;2023-11-21T03:00:18;101065.69;;;6.90;100.00
51289;BME280;37372;52.294;5.152;2023-11-21T03:02:43;101064.66;;;6.91;100.00
51289;BME280;37372;52.294;5.152;2023-11-21T03:05:09;101067.78;;;6.94;100.00
51289;BME280;37372;52.294;5.152;2023-11-21T03:07:37;101071.38;;;6.95;100.00
51289;BME280;37372;52.294;5.152;2023-11-21T03:10:02;101069.69;;;6.94;100.00
51289;BME280;37372;52.294;5.152;2023-11-21T03:12:30;101069.94;;;6.99;100.00
51289;BME280;37372;52.294;5.152;2023-11-21T03:14:55;101067.00;;;7.00;100.00
51289;BME280;37372;52.294;5.152;2023-11-21T03:17:21;101072.28;;;7.02;100.00
51289;BME280;37372;52.294;5.152;2023-11-21T03:19:46;101079.41;;;7.03;100.00
51289;BME280;37372;52.294;5.152;2023-11-21T03:22:12;101081.50;;;7.07;100.00
51289;BME280;37372;52.294;5.152;2023-11-21T03:24:38;101078.59;;;7.09;100.00
51289;BME280;37372;52.294;5.152;2023-11-21T03:27:04;101079.44;;;7.10;100.00
51289;BME280;37372;52.294;5.152;2023-11-21T03:29:30;101080.91;;;7.12;100.00
51289;BME280;37372;52.294;5.152;2023-11-21T03:31:56;101076.28;;;7.13;100.00
51289;BME280;37372;52.294;5.152;2023-11-21T03:34:26;101076.75;;;7.16;100.00
51289;BME280;37372;52.294;5.152;2023-11-21T03:36:53;101092.91;;;7.18;100.00
51289;BME280;37372;52.294;5.152;2023-11-21T03:39:21;101090.16;;;7.18;100.00
51289;BME280;37372;52.294;5.152;2023-11-21T03:41:48;101092.28;;;7.16;100.00
51289;BME280;37372;52.294;5.152;2023-11-21T03:44:14;101093.34;;;7.21;100.00
51289;BME280;37372;52.294;5.152;2023-11-21T03:46:40;101093.34;;;7.21;100.00
51289;BME280;37372;52.294;5.152;2023-11-21T03:49:06;101097.09;;;7.20;100.00
51289;BME280;37372;52.294;5.152;2023-11-21T03:51:31;101101.13;;;7.24;100.00
51289;BME280;37372;52.294;5.152;2023-11-21T03:53:57;101104.47;;;7.26;100.00
51289;BME280;37372;52.294;5.152;2023-11-21T03:56:23;101103.41;;;7.27;100.00
51289;BME280;37372;52.294;5.152;2023-11-21T03:58:48;101108.69;;;7.29;100.00
51289;BME280;37372;52.294;5.152;2023-11-21T04:01:23;101115.00;;;7.29;100.00
51289;BME280;37372;52.294;5.152;2023-11-21T04:03:50;101119.63;;;7.29;100.00
51289;BME280;37372;52.294;5.152;2023-11-21T04:06:17;101123.81;;;7.31;100.00
51289;BME280;37372;52.294;5.152;2023-11-21T04:08:43;101124.88;;;7.30;100.00
51289;BME280;37372;52.294;5.152;2023-11-21T04:11:11;101124.66;;;7.32;100.00
51289;BME280;37372;52.294;5.152;2023-11-21T04:13:40;101132.00;;;7.31;100.00
51289;BME280;37372;52.294;5.152;2023-11-21T04:16:07;101135.78;;;7.30;100.00
51289;BME280;37372;52.294;5.152;2023-11-21T04:18:37;101137.25;;;7.33;100.00
51289;BME280;37372;52.294;5.152;2023-11-21T04:21:06;101136.41;;;7.32;100.00
51289;BME280;37372;52.294;5.152;2023-11-21T04:23:33;101142.72;;;7.33;100.00
51289;BME280;37372;52.294;5.152;2023-11-21T04:26:00;101146.28;;;7.33;100.00
51289;BME280;37372;52.294;5.152;2023-11-21T04:28:27;101146.69;;;7.30;100.00
51289;BME280;37372;52.294;5.152;2023-11-21T04:30:52;101148.00;;;7.35;100.00
51289;BME280;37372;52.294;5.152;2023-11-21T04:33:17;101155.13;;;7.36;100.00
51289;BME280;37372;52.294;5.152;2023-11-21T04:35:43;101151.13;;;7.38;100.00
51289;BME280;37372;52.294;5.152;2023-11-21T04:38:08;101148.19;;;7.40;100.00
51289;BME280;37372;52.294;5.152;2023-11-21T04:40:34;101158.94;;;7.41;100.00
51289;BME280;37372;52.294;5.152;2023-11-21T04:43:00;101162.69;;;7.40;100.00
51289;BME280;37372;52.294;5.152;2023-11-21T04:45:26;101158.94;;;7.41;100.00
51289;BME280;37372;52.294;5.152;2023-11-21T04:47:52;101160.63;;;7.42;100.00
51289;BME280;37372;52.294;5.152;2023-11-21T04:50:17;101162.28;;;7.43;100.00
51289;BME280;37372;52.294;5.152;2023-11-21T04:52:43;101157.69;;;7.44;100.00
51289;BME280;37372;52.294;5.152;2023-11-21T04:55:08;101159.56;;;7.43;100.00
51289;BME280;37372;52.294;5.152;2023-11-21T04:57:36;101170.28;;;7.45;100.00
51289;BME280;37372;52.294;5.152;2023-11-21T05:00:03;101165.25;;;7.48;100.00
51289;BME280;37372;52.294;5.152;2023-11-21T05:02:34;101174.28;;;7.49;100.00
51289;BME280;37372;52.294;5.152;2023-11-21T05:05:00;101170.72;;;7.48;100.00
51289;BME280;37372;52.294;5.152;2023-11-21T05:07:25;101180.19;;;7.52;100.00
51289;BME280;37372;52.294;5.152;2023-11-21T05:09:54;101181.00;;;7.53;100.00
51289;BME280;37372;52.294;5.152;2023-11-21T05:12:24;101191.53;;;7.56;100.00
51289;BME280;37372;52.294;5.152;2023-11-21T05:14:50;101190.50;;;7.57;100.00
51289;BME280;37372;52.294;5.152;2023-11-21T05:17:16;101187.97;;;7.55;100.00
51289;BME280;37372;52.294;5.152;2023-11-21T05:19:41;101186.09;;;7.56;100.00
51289;BME280;37372;52.294;5.152;2023-11-21T05:22:07;101194.28;;;7.56;100.00
51289;BME280;37372;52.294;5.152;2023-11-21T05:24:33;101195.72;;;7.52;100.00
51289;BME280;37372;52.294;5.152;2023-11-21T05:27:00;101197.41;;;7.53;100.00
51289;BME280;37372;52.294;5.152;2023-11-21T05:29:25;101201.38;;;7.50;100.00
51289;BME280;37372;52.294;5.152;2023-11-21T05:31:51;101193.41;;;7.49;100.00
51289;BME280;37372;52.294;5.152;2023-11-21T05:34:16;101207.06;;;7.49;100.00
51289;BME280;37372;52.294;5.152;2023-11-21T05:36:43;101217.31;;;7.47;100.00
51289;BME280;37372;52.294;5.152;2023-11-21T05:39:11;101229.94;;;7.48;100.00
51289;BME280;37372;52.294;5.152;2023-11-21T05:41:36;101228.88;;;7.49;100.00
51289;BME280;37372;52.294;5.152;2023-11-21T05:44:02;101233.31;;;7.50;100.00
51289;BME280;37372;52.294;5.152;2023-11-21T05:46:27;101232.88;;;7.53;100.00
51289;BME280;37372;52.294;5.152;2023-11-21T05:48:53;101232.88;;;7.53;100.00
51289;BME280;37372;52.294;5.152;2023-11-21T05:51:18;101235.81;;;7.51;100.00
51289;BME280;37372;52.294;5.152;2023-11-21T05:53:43;101240.91;;;7.54;100.00
51289;BME280;37372;52.294;5.152;2023-11-21T05:56:09;101236.69;;;7.58;100.00
51289;BME280;37372;52.294;5.152;2023-11-21T05:58:34;101244.09;;;7.65;100.00
51289;BME280;37372;52.294;5.152;2023-11-21T06:01:00;101239.06;;;7.68;100.00
51289;BME280;37372;52.294;5.152;2023-11-21T06:03:25;101247.72;;;7.78;100.00
51289;BME280;37372;52.294;5.152;2023-11-21T06:05:50;101236.84;;;7.92;100.00
51289;BME280;37372;52.294;5.152;2023-11-21T06:08:16;101251.63;;;8.04;100.00
51289;BME280;37372;52.294;5.152;2023-11-21T06:10:42;101256.09;;;8.11;100.00
51289;BME280;37372;52.294;5.152;2023-11-21T06:13:10;101258.19;;;8.23;100.00
51289;BME280;37372;52.294;5.152;2023-11-21T06:15:36;101262.44;;;8.25;100.00
51289;BME280;37372;52.294;5.152;2023-11-21T06:18:02;101263.91;;;8.28;100.00
51289;BME280;37372;52.294;5.152;2023-11-21T06:20:27;101267.25;;;8.30;100.00
51289;BME280;37372;52.294;5.152;2023-11-21T06:22:53;101275.69;;;8.35;100.00
51289;BME280;37372;52.294;5.152;2023-11-21T06:25:19;101271.94;;;8.36;100.00
51289;BME280;37372;52.294;5.152;2023-11-21T06:27:46;101274.50;;;8.37;100.00
51289;BME280;37372;52.294;5.152;2023-11-21T06:30:13;101265.88;;;8.40;100.00
51289;BME280;37372;52.294;5.152;2023-11-21T06:32:40;101282.69;;;8.37;100.00
51289;BME280;37372;52.294;5.152;2023-11-21T06:35:07;101280.38;;;8.41;100.00
51289;BME280;37372;52.294;5.152;2023-11-21T06:37:34;101285.84;;;8.41;100.00
51289;BME280;37372;52.294;5.152;2023-11-21T06:40:00;101284.41;;;8.45;100.00
51289;BME280;37372;52.294;5.152;2023-11-21T06:42:35;101295.50;;;8.44;100.00
51289;BME280;37372;52.294;5.152;2023-11-21T06:45:00;101298.06;;;8.45;100.00
51289;BME280;37372;52.294;5.152;2023-11-21T06:47:29;101298.47;;;8.49;100.00
51289;BME280;37372;52.294;5.152;2023-11-21T06:49:56;101306.69;;;8.49;100.00
51289;BME280;37372;52.294;5.152;2023-11-21T06:52:21;101309.41;;;8.49;100.00
51289;BME280;37372;52.294;5.152;2023-11-21T06:54:47;101310.06;;;8.51;100.00
51289;BME280;37372;52.294;5.152;2023-11-21T06:57:15;101311.13;;;8.56;100.00
51289;BME280;37372;52.294;5.152;2023-11-21T06:59:41;101316.38;;;8.51;100.00
51289;BME280;37372;52.294;5.152;2023-11-21T07:02:08;101321.63;;;8.53;100.00
51289;BME280;37372;52.294;5.152;2023-11-21T07:04:35;101326.47;;;8.51;100.00
51289;BME280;37372;52.294;5.152;2023-11-21T07:07:02;101328.59;;;8.62;100.00
51289;BME280;37372;52.294;5.152;2023-11-21T07:09:27;101332.81;;;8.58;100.00
51289;BME280;37372;52.294;5.152;2023-11-21T07:11:53;101332.63;;;8.66;100.00
51289;BME280;37372;52.294;5.152;2023-11-21T07:14:19;101332.63;;;8.66;100.00
51289;BME280;37372;52.294;5.152;2023-11-21T07:16:45;101335.56;;;8.64;100.00
51289;BME280;37372;52.294;5.152;2023-11-21T07:19:11;101329.44;;;8.62;100.00
51289;BME280;37372;52.294;5.152;2023-11-21T07:21:37;101342.09;;;8.63;100.00
51289;BME280;37372;52.294;5.152;2023-11-21T07:24:03;101343.94;;;8.63;100.00
51289;BME280;37372;52.294;5.152;2023-11-21T07:26:29;101345.22;;;8.67;100.00
51289;BME280;37372;52.294;5.152;2023-11-21T07:28:55;101346.31;;;8.73;100.00
51289;BME280;37372;52.294;5.152;2023-11-21T07:31:23;101358.91;;;8.67;100.00
51289;BME280;37372;52.294;5.152;2023-11-21T07:33:51;101359.75;;;8.67;100.00
51289;BME280;37372;52.294;5.152;2023-11-21T07:36:18;101364.38;;;8.67;100.00
51289;BME280;37372;52.294;5.152;2023-11-21T07:38:44;101377.63;;;8.63;100.00
51289;BME280;37372;52.294;5.152;2023-11-21T07:41:11;101386.69;;;8.64;100.00
51289;BME280;37372;52.294;5.152;2023-11-21T07:43:37;101381.59;;;8.61;100.00
51289;BME280;37372;52.294;5.152;2023-11-21T07:46:03;101381.41;;;8.62;100.00
51289;BME280;37372;52.294;5.152;2023-11-21T07:48:32;101389.41;;;8.64;100.00
51289;BME280;37372;52.294;5.152;2023-11-21T07:50:58;101404.31;;;8.61;100.00
51289;BME280;37372;52.294;5.152;2023-11-21T07:53:27;101400.78;;;8.67;100.00
51289;BME280;37372;52.294;5.152;2023-11-21T07:55:55;101410.88;;;8.67;100.00
51289;BME280;37372;52.294;5.152;2023-11-21T07:58:21;101412.78;;;8.73;100.00
51289;BME280;37372;52.294;5.152;2023-11-21T08:00:46;101419.94;;;8.74;100.00
51289;BME280;37372;52.294;5.152;2023-11-21T08:03:15;101433.22;;;8.71;100.00
51289;BME280;37372;52.294;5.152;2023-11-21T08:05:41;101425.00;;;8.71;100.00
51289;BME280;37372;52.294;5.152;2023-11-21T08:08:07;101437.41;;;8.73;100.00
51289;BME280;37372;52.294;5.152;2023-11-21T08:10:33;101440.19;;;8.80;100.00
51289;BME280;37372;52.294;5.152;2023-11-21T08:12:59;101446.91;;;8.77;100.00
51289;BME280;37372;52.294;5.152;2023-11-21T08:15:25;101448.38;;;8.80;100.00
51289;BME280;37372;52.294;5.152;2023-11-21T08:17:51;101447.31;;;8.81;100.00
51289;BME280;37372;52.294;5.152;2023-11-21T08:20:17;101457.66;;;8.85;100.00
51289;BME280;37372;52.294;5.152;2023-11-21T08:22:43;101464.25;;;8.98;100.00
51289;BME280;37372;52.294;5.152;2023-11-21T08:25:09;101464.88;;;9.00;100.00
51289;BME280;37372;52.294;5.152;2023-11-21T08:27:34;101469.28;;;9.01;100.00
51289;BME280;37372;52.294;5.152;2023-11-21T08:30:02;101475.41;;;9.03;100.00
51289;BME280;37372;52.294;5.152;2023-11-21T08:32:28;101478.16;;;9.03;100.00
51289;BME280;37372;52.294;5.152;2023-11-21T08:34:55;101488.00;;;8.90;100.00
51289;BME280;37372;52.294;5.152;2023-11-21T08:37:21;101491.13;;;8.87;100.00
51289;BME280;37372;52.294;5.152;2023-11-21T08:39:47;101503.13;;;8.86;100.00
51289;BME280;37372;52.294;5.152;2023-11-21T08:42:14;101491.13;;;8.87;100.00
51289;BME280;37372;52.294;5.152;2023-11-21T08:44:40;101508.00;;;8.91;100.00
51289;BME280;37372;52.294;5.152;2023-11-21T08:47:06;101510.31;;;8.94;100.00
51289;BME280;37372;52.294;5.152;2023-11-21T08:49:32;101517.00;;;8.85;100.00
51289;BME280;37372;52.294;5.152;2023-11-21T08:51:57;101525.84;;;8.87;100.00
51289;BME280;37372;52.294;5.152;2023-11-21T08:54:25;101519.31;;;8.88;100.00
51289;BME280;37372;52.294;5.152;2023-11-21T08:56:51;101526.47;;;8.82;100.00
51289;BME280;37372;52.294;5.152;2023-11-21T08:59:16;101533.44;;;8.85;100.00
51289;BME280;37372;52.294;5.152;2023-11-21T09:01:42;101526.06;;;8.85;100.00
51289;BME280;37372;52.294;5.152;2023-11-21T09:04:07;101528.38;;;8.88;100.00
51289;BME280;37372;52.294;5.152;2023-11-21T09:06:34;101530.50;;;8.93;100.00
51289;BME280;37372;52.294;5.152;2023-11-21T09:09:00;101549.25;;;8.89;100.00
51289;BME280;37372;52.294;5.152;2023-11-21T09:11:26;101553.44;;;8.85;100.00
51289;BME280;37372;52.294;5.152;2023-11-21T09:13:56;101558.91;;;8.85;100.00
51289;BME280;37372;52.294;5.152;2023-11-21T09:16:23;101561.00;;;8.83;100.00
51289;BME280;37372;52.294;5.152;2023-11-21T09:18:48;101566.25;;;8.85;100.00
51289;BME280;37372;52.294;5.152;2023-11-21T09:21:13;101559.31;;;8.82;100.00
51289;BME280;37372;52.294;5.152;2023-11-21T09:23:38;101562.91;;;8.83;100.00
51289;BME280;37372;52.294;5.152;2023-11-21T09:26:04;101573.38;;;8.79;100.00
51289;BME280;37372;52.294;5.152;2023-11-21T09:28:32;101570.66;;;8.79;100.00
51289;BME280;37372;52.294;5.152;2023-11-21T09:30:57;101583.06;;;8.82;100.00
51289;BME280;37372;52.294;5.152;2023-11-21T09:33:23;101584.38;;;8.86;100.00
51289;BME280;37372;52.294;5.152;2023-11-21T09:35:50;101586.72;;;8.89;100.00
51289;BME280;37372;52.294;5.152;2023-11-21T09:38:16;101586.50;;;8.90;100.00
51289;BME280;37372;52.294;5.152;2023-11-21T09:40:41;101596.16;;;8.86;100.00
51289;BME280;37372;52.294;5.152;2023-11-21T09:43:16;101602.03;;;8.83;100.00
51289;BME280;37372;52.294;5.152;2023-11-21T09:45:48;101602.41;;;8.80;100.00
51289;BME280;37372;52.294;5.152;2023-11-21T09:48:16;101610.47;;;8.88;100.00
51289;BME280;37372;52.294;5.152;2023-11-21T09:50:42;101621.88;;;8.92;100.00
51289;BME280;37372;52.294;5.152;2023-11-21T09:53:19;101618.66;;;8.88;100.00
51289;BME280;37372;52.294;5.152;2023-11-21T09:55:52;101629.28;;;8.98;100.00
51289;BME280;37372;52.294;5.152;2023-11-21T09:58:18;101634.06;;;8.89;100.00
51289;BME280;37372;52.294;5.152;2023-11-21T10:00:46;101631.97;;;8.91;100.00
51289;BME280;37372;52.294;5.152;2023-11-21T10:03:12;101636.81;;;8.89;100.00
51289;BME280;37372;52.294;5.152;2023-11-21T10:05:39;101637.41;;;8.85;100.00
51289;BME280;37372;52.294;5.152;2023-11-21T10:08:08;101642.28;;;8.89;100.00
51289;BME280;37372;52.294;5.152;2023-11-21T10:10:42;101646.69;;;8.90;100.00
51289;BME280;37372;52.294;5.152;2023-11-21T10:13:12;101652.81;;;8.92;100.00
51289;BME280;37372;52.294;5.152;2023-11-21T10:15:38;101658.28;;;8.92;100.00
51289;BME280;37372;52.294;5.152;2023-11-21T10:18:06;101666.69;;;8.91;100.00
51289;BME280;37372;52.294;5.152;2023-11-21T10:20:33;101677.84;;;8.89;100.00
51289;BME280;37372;52.294;5.152;2023-11-21T10:23:00;101672.22;;;8.98;100.00
51289;BME280;37372;52.294;5.152;2023-11-21T10:25:27;101679.00;;;9.02;100.00
51289;BME280;37372;52.294;5.152;2023-11-21T10:27:58;101684.47;;;9.02;100.00
51289;BME280;37372;52.294;5.152;2023-11-21T10:30:36;101691.22;;;9.06;100.00
51289;BME280;37372;52.294;5.152;2023-11-21T10:33:03;101700.69;;;9.03;100.00
51289;BME280;37372;52.294;5.152;2023-11-21T10:35:48;101692.06;;;9.06;100.00
51289;BME280;37372;52.294;5.152;2023-11-21T10:38:23;101706.94;;;8.97;100.00
51289;BME280;37372;52.294;5.152;2023-11-21T10:40:50;101702.16;;;9.06;100.00
51289;BME280;37372;52.294;5.152;2023-11-21T10:43:17;101706.44;;;9.15;100.00
51289;BME280;37372;52.294;5.152;2023-11-21T10:45:43;101698.56;;;9.05;100.00
51289;BME280;37372;52.294;5.152;2023-11-21T10:48:13;101698.66;;;9.18;100.00
51289;BME280;37372;52.294;5.152;2023-11-21T10:50:46;101702.47;;;9.17;100.00
51289;BME280;37372;52.294;5.152;2023-11-21T10:53:13;101709.81;;;9.17;100.00
51289;BME280;37372;52.294;5.152;2023-11-21T10:55:39;101715.47;;;9.43;100.00
51289;BME280;37372;52.294;5.152;2023-11-21T10:58:05;101714.97;;;9.33;100.00
51289;BME280;37372;52.294;5.152;2023-11-21T11:00:34;101716.44;;;9.29;100.00
51289;BME280;37372;52.294;5.152;2023-11-21T11:03:00;101720.13;;;9.15;100.00
51289;BME280;37372;52.294;5.152;2023-11-21T11:05:27;101729.78;;;9.11;100.00
51289;BME280;37372;52.294;5.152;2023-11-21T11:08:05;101723.22;;;9.05;100.00
51289;BME280;37372;52.294;5.152;2023-11-21T11:10:33;101735.16;;;8.98;100.00
51289;BME280;37372;52.294;5.152;2023-11-21T11:12:59;101736.47;;;9.02;100.00
51289;BME280;37372;52.294;5.152;2023-11-21T11:15:26;101737.69;;;8.99;100.00
51289;BME280;37372;52.294;5.152;2023-11-21T11:17:53;101738.63;;;9.13;100.00
51289;BME280;37372;52.294;5.152;2023-11-21T11:20:23;101736.78;;;9.20;100.00
51289;BME280;37372;52.294;5.152;2023-11-21T11:23:12;101743.16;;;9.27;100.00
51289;BME280;37372;52.294;5.152;2023-11-21T11:28:22;101752.44;;;9.61;100.00
51289;BME280;37372;52.294;5.152;2023-11-21T11:31:26;101751.59;;;9.60;100.00
51289;BME280;37372;52.294;5.152;2023-11-21T11:33:58;101755.75;;;9.49;100.00
51289;BME280;37372;52.294;5.152;2023-11-21T11:36:41;101751.47;;;9.40;100.00
51289;BME280;37372;52.294;5.152;2023-11-21T11:39:28;101759.56;;;9.27;100.00
51289;BME280;37372;52.294;5.152;2023-11-21T11:41:58;101768.75;;;9.13;100.00
51289;BME280;37372;52.294;5.152;2023-11-21T11:50:06;101768.53;;;8.86;100.00
51289;BME280;37372;52.294;5.152;2023-11-21T11:52:49;101763.47;;;8.83;100.00
51289;BME280;37372;52.294;5.152;2023-11-21T11:55:21;101766.84;;;8.85;100.00
51289;BME280;37372;52.294;5.152;2023-11-21T11:57:49;101776.25;;;8.76;100.00
51289;BME280;37372;52.294;5.152;2023-11-21T12:00:23;101771.84;;;8.82;100.00
51289;BME280;37372;52.294;5.152;2023-11-21T12:03:03;101780.66;;;8.77;100.00
51289;BME280;37372;52.294;5.152;2023-11-21T12:05:30;101783.13;;;8.72;100.00
51289;BME280;37372;52.294;5.152;2023-11-21T12:08:00;101788.59;;;8.72;100.00
51289;BME280;37372;52.294;5.152;2023-11-21T12:10:37;101781.31;;;8.79;100.00
51289;BME280;37372;52.294;5.152;2023-11-21T12:13:11;101788.25;;;8.82;100.00
51289;BME280;37372;52.294;5.152;2023-11-21T12:15:39;101782.34;;;8.78;100.00
51289;BME280;37372;52.294;5.152;2023-11-21T12:18:06;101787.13;;;8.70;100.00
51289;BME280;37372;52.294;5.152;2023-11-21T12:20:32;101791.34;;;8.72;100.00
51289;BME280;37372;52.294;5.152;2023-11-21T12:23:04;101793.59;;;8.68;100.00
51289;BME280;37372;52.294;5.152;2023-11-21T12:25:31;101792.75;;;8.68;100.00
51289;BME280;37372;52.294;5.152;2023-11-21T12:27:58;101789.59;;;8.64;100.00
51289;BME280;37372;52.294;5.152;2023-11-21T12:30:30;101799.63;;;8.57;100.00
51289;BME280;37372;52.294;5.152;2023-11-21T12:32:59;101800.06;;;8.61;100.00
51289;BME280;37372;52.294;5.152;2023-11-21T12:35:26;101803.00;;;8.59;100.00
51289;BME280;37372;52.294;5.152;2023-11-21T12:37:54;101810.47;;;8.51;100.00
51289;BME280;37372;52.294;5.152;2023-11-21T12:40:20;101817.91;;;8.57;100.00
51289;BME280;37372;52.294;5.152;2023-11-21T12:42:49;101820.44;;;8.58;100.00
51289;BME280;37372;52.294;5.152;2023-11-21T12:45:22;101818.16;;;8.62;100.00
51289;BME280;37372;52.294;5.152;2023-11-21T12:47:51;101822.56;;;8.63;100.00
51289;BME280;37372;52.294;5.152;2023-11-21T12:50:28;101821.28;;;8.59;100.00
51289;BME280;37372;52.294;5.152;2023-11-21T12:55:25;101830.53;;;8.58;100.00
51289;BME280;37372;52.294;5.152;2023-11-21T12:57:55;101842.97;;;8.60;100.00
51289;BME280;37372;52.294;5.152;2023-11-21T13:00:28;101845.72;;;8.60;100.00
51289;BME280;37372;52.294;5.152;2023-11-21T13:02:56;101845.78;;;8.67;100.00